createdAt,value
2018-01-01T00:02:10.183Z,223.27
2018-01-01T00:04:36.558Z,212.80
2018-01-01T00:07:02.999Z,205.73
2018-01-01T00:09:29.415Z,213.70
2018-01-01T00:11:55.763Z,211.57
2018-01-01T00:14:22.177Z,210.50
2018-01-01T00:16:48.598Z,205.67
2018-01-01T00:19:14.988Z,218.13
2018-01-01T00:21:41.374Z,221.03
2018-01-01T00:24:07.803Z,219.67
2018-01-01T00:26:34.196Z,226.50
2018-01-01T00:29:00.582Z,221.80
2018-01-01T00:31:27.019Z,223.17
2018-01-01T00:33:53.397Z,219.80
2018-01-01T00:36:19.831Z,216.90
2018-01-01T00:38:46.286Z,212.90
2018-01-01T00:41:12.703Z,208.20
2018-01-01T00:43:39.166Z,207.37
2018-01-01T00:46:05.541Z,216.40
2018-01-01T00:48:31.935Z,202.23
2018-01-01T00:50:58.341Z,187.57
2018-01-01T00:53:24.718Z,186.23
2018-01-01T00:55:51.068Z,187.87
2018-01-01T00:58:17.451Z,184.17
2018-01-01T01:00:43.912Z,177.43
2018-01-01T01:03:10.319Z,168.77
2018-01-01T01:05:36.734Z,151.83
2018-01-01T01:08:03.163Z,143.07
2018-01-01T01:10:29.596Z,131.47
2018-01-01T01:12:56.027Z,121.50
2018-01-01T01:15:22.479Z,112.73
2018-01-01T01:17:48.867Z,110.67
2018-01-01T01:20:15.271Z,115.70
2018-01-01T01:22:41.716Z,111.67
2018-01-01T01:25:08.117Z,112.90
2018-01-01T01:27:34.503Z,105.80
2018-01-01T01:30:00.928Z,104.63
2018-01-01T01:32:27.314Z,99.10
2018-01-01T01:34:53.691Z,92.87
2018-01-01T01:37:20.167Z,85.93
2018-01-01T01:39:46.562Z,84.03
2018-01-01T01:42:12.975Z,79.50
2018-01-01T01:44:39.419Z,75.50
2018-01-01T01:47:05.859Z,74.10
2018-01-01T01:49:32.270Z,73.07
2018-01-01T01:51:58.783Z,71.00
2018-01-01T01:54:25.191Z,68.50
2018-01-01T01:56:51.583Z,65.87
2018-01-01T01:59:18.023Z,62.93
2018-01-01T02:01:44.434Z,62.13
2018-01-01T02:04:10.831Z,60.97
2018-01-01T02:06:37.284Z,61.57
2018-01-01T02:09:03.812Z,62.33
2018-01-01T02:11:30.217Z,58.93
2018-01-01T02:13:56.611Z,61.07
2018-01-01T02:16:23.020Z,63.23
2018-01-01T02:18:49.396Z,62.30
2018-01-01T02:21:15.850Z,62.73
2018-01-01T02:23:42.215Z,63.57
2018-01-01T02:26:08.587Z,66.63
2018-01-01T02:28:35.046Z,64.53
2018-01-01T02:31:01.450Z,66.10
2018-01-01T02:33:27.913Z,64.07
2018-01-01T02:35:54.394Z,68.53
2018-01-01T02:38:20.839Z,71.73
2018-01-01T02:40:47.243Z,85.33
2018-01-01T02:43:13.719Z,92.50
2018-01-01T02:45:40.099Z,103.57
2018-01-01T02:48:06.480Z,101.67
2018-01-01T02:50:32.898Z,106.23
2018-01-01T02:52:59.323Z,107.97
2018-01-01T02:55:25.760Z,110.90
2018-01-01T02:57:52.223Z,112.40
2018-01-01T03:00:18.591Z,118.77
2018-01-01T03:02:44.990Z,122.97
2018-01-01T03:05:11.528Z,127.17
2018-01-01T03:07:37.985Z,125.10
2018-01-01T03:10:04.387Z,130.27
2018-01-01T03:12:30.843Z,126.07
2018-01-01T03:14:57.257Z,123.43
2018-01-01T03:17:23.791Z,122.40
2018-01-01T03:19:50.255Z,126.70
2018-01-01T03:22:16.659Z,124.33
2018-01-01T03:24:43.074Z,120.63
2018-01-01T03:27:09.524Z,122.67
2018-01-01T03:29:35.911Z,120.60
2018-01-01T03:32:02.343Z,122.13
2018-01-01T03:34:28.830Z,123.47
2018-01-01T03:36:55.203Z,120.43
2018-01-01T03:39:21.579Z,123.00
2018-01-01T03:41:48.057Z,120.07
2018-01-01T03:44:14.443Z,119.43
2018-01-01T03:46:40.815Z,120.63
2018-01-01T03:49:07.247Z,118.33
2018-01-01T03:51:33.627Z,120.30
2018-01-01T03:54:00.035Z,117.07
2018-01-01T03:56:26.480Z,114.73
2018-01-01T03:58:52.878Z,116.17
2018-01-01T04:01:19.327Z,109.83
2018-01-01T04:03:45.712Z,103.47
2018-01-01T04:06:12.055Z,97.93
2018-01-01T04:08:38.394Z,86.33
2018-01-01T04:11:04.807Z,83.83
2018-01-01T04:13:31.192Z,87.53
2018-01-01T04:15:57.620Z,89.97
2018-01-01T04:18:24.107Z,86.10
2018-01-01T04:20:50.512Z,86.93
2018-01-01T04:23:16.928Z,87.47
2018-01-01T04:25:43.403Z,85.47
2018-01-01T04:28:09.820Z,78.13
2018-01-01T04:30:36.211Z,81.43
2018-01-01T04:33:02.648Z,84.27
2018-01-01T04:35:29.041Z,86.23
2018-01-01T04:37:55.443Z,93.67
2018-01-01T04:40:21.879Z,100.50
2018-01-01T04:42:48.331Z,95.63
2018-01-01T04:45:14.674Z,98.03
2018-01-01T04:47:41.167Z,84.73
2018-01-01T04:50:07.639Z,75.20
2018-01-01T04:52:34.108Z,74.60
2018-01-01T04:55:00.511Z,70.13
2018-01-01T04:57:26.918Z,67.30
2018-01-01T04:59:53.318Z,64.13
2018-01-01T05:02:19.743Z,66.30
2018-01-01T05:04:46.135Z,64.37
2018-01-01T05:07:12.557Z,65.80
2018-01-01T05:09:38.999Z,62.33
2018-01-01T05:12:05.396Z,63.47
2018-01-01T05:14:31.843Z,61.73
2018-01-01T05:16:58.303Z,63.50
2018-01-01T05:19:24.707Z,61.23
2018-01-01T05:21:51.156Z,60.53
2018-01-01T05:24:17.691Z,61.97
2018-01-01T05:26:44.100Z,62.93
2018-01-01T05:29:10.542Z,60.93
2018-01-01T05:31:36.942Z,61.63
2018-01-01T05:34:03.328Z,61.13
2018-01-01T05:36:29.703Z,60.67
2018-01-01T05:38:56.122Z,59.30
2018-01-01T05:41:22.479Z,59.13
2018-01-01T05:43:48.929Z,62.63
2018-01-01T05:46:15.398Z,59.10
2018-01-01T05:48:42.056Z,64.67
2018-01-01T05:51:08.443Z,64.93
2018-01-01T05:53:34.926Z,61.30
2018-01-01T05:56:01.296Z,61.43
2018-01-01T05:58:27.695Z,68.80
2018-01-01T06:00:54.104Z,75.80
2018-01-01T06:03:20.477Z,72.97
2018-01-01T06:05:46.951Z,78.40
2018-01-01T06:08:13.392Z,78.53
2018-01-01T06:10:39.764Z,79.87
2018-01-01T06:13:06.140Z,79.60
2018-01-01T06:15:32.622Z,78.37
2018-01-01T06:17:59.016Z,78.57
2018-01-01T06:20:25.472Z,76.80
2018-01-01T06:22:51.875Z,73.10
2018-01-01T06:25:18.277Z,70.67
2018-01-01T06:27:44.712Z,66.30
2018-01-01T06:30:11.246Z,70.93
2018-01-01T06:32:37.657Z,71.63
2018-01-01T06:35:04.006Z,72.77
2018-01-01T06:37:30.645Z,71.53
2018-01-01T06:39:57.159Z,68.57
2018-01-01T06:42:23.523Z,68.47
2018-01-01T06:44:49.980Z,63.97
2018-01-01T06:47:16.356Z,64.13
2018-01-01T06:49:42.791Z,59.13
2018-01-01T06:52:09.239Z,58.70
2018-01-01T06:54:35.607Z,60.47
2018-01-01T06:57:02.085Z,59.17
2018-01-01T06:59:28.560Z,62.17
2018-01-01T07:01:54.891Z,61.17
2018-01-01T07:04:21.319Z,64.53
2018-01-01T07:06:47.800Z,63.63
2018-01-01T07:09:14.154Z,69.20
2018-01-01T07:11:40.528Z,74.83
2018-01-01T07:14:06.973Z,76.93
2018-01-01T07:16:33.328Z,79.33
2018-01-01T07:18:59.827Z,84.07
2018-01-01T07:21:26.271Z,81.10
2018-01-01T07:23:52.650Z,84.13
2018-01-01T07:26:19.067Z,78.57
2018-01-01T07:28:45.495Z,77.27
2018-01-01T07:31:11.919Z,85.03
2018-01-01T07:33:38.323Z,81.47
2018-01-01T07:36:04.869Z,81.40
2018-01-01T07:38:31.251Z,80.83
2018-01-01T07:40:57.655Z,84.73
2018-01-01T07:43:24.084Z,91.17
2018-01-01T07:45:50.477Z,91.93
2018-01-01T07:48:17.393Z,93.03
2018-01-01T07:50:43.868Z,100.83
2018-01-01T07:53:10.208Z,108.97
2018-01-01T07:55:36.630Z,106.97
2018-01-01T07:58:03.029Z,105.73
2018-01-01T08:00:29.452Z,108.40
2018-01-01T08:02:55.921Z,106.37
2018-01-01T08:05:22.347Z,106.50
2018-01-01T08:07:48.701Z,104.90
2018-01-01T08:10:15.035Z,103.90
2018-01-01T08:12:41.434Z,103.37
2018-01-01T08:15:07.855Z,111.60
2018-01-01T08:17:34.239Z,106.10
2018-01-01T08:20:00.683Z,101.93
2018-01-01T08:22:27.087Z,94.53
2018-01-01T08:24:53.484Z,81.67
2018-01-01T08:27:19.884Z,95.87
2018-01-01T08:29:46.277Z,88.80
2018-01-01T08:32:12.680Z,91.80
2018-01-01T08:34:39.176Z,83.20
2018-01-01T08:37:05.595Z,81.77
2018-01-01T08:39:31.989Z,63.57
2018-01-01T08:41:58.420Z,63.13
2018-01-01T08:44:24.807Z,61.30
2018-01-01T08:46:51.202Z,50.70
2018-01-01T08:49:17.615Z,46.53
2018-01-01T08:51:44.029Z,41.20
2018-01-01T08:54:10.490Z,33.13
2018-01-01T08:56:36.987Z,33.80
2018-01-01T08:59:03.320Z,41.13
2018-01-01T09:01:29.723Z,44.87
2018-01-01T09:03:56.129Z,28.70
2018-01-01T09:06:22.595Z,21.37
2018-01-01T09:08:48.995Z,23.70
2018-01-01T09:11:15.436Z,20.37
2018-01-01T09:13:41.842Z,28.63
2018-01-01T09:16:08.207Z,17.10
2018-01-01T09:18:34.615Z,15.80
2018-01-01T09:21:01.011Z,16.33
2018-01-01T09:23:27.391Z,37.30
2018-01-01T09:25:53.819Z,36.03
2018-01-01T09:28:20.218Z,17.77
2018-01-01T09:30:46.587Z,16.83
2018-01-01T09:33:13.023Z,19.17
2018-01-01T09:35:39.439Z,18.50
2018-01-01T09:38:05.787Z,21.57
2018-01-01T09:40:32.178Z,29.43
2018-01-01T09:42:58.551Z,26.93
2018-01-01T09:45:24.987Z,29.80
2018-01-01T09:47:51.463Z,24.27
2018-01-01T09:50:17.828Z,19.73
2018-01-01T09:52:44.207Z,19.00
2018-01-01T09:55:10.667Z,18.60
2018-01-01T09:57:37.097Z,18.93
2018-01-01T10:00:03.568Z,18.63
2018-01-01T10:02:30.011Z,17.87
2018-01-01T10:04:56.451Z,23.60
2018-01-01T10:07:22.870Z,18.30
2018-01-01T10:09:49.247Z,16.00
2018-01-01T10:12:15.623Z,17.53
2018-01-01T10:14:42.019Z,15.73
2018-01-01T10:17:08.465Z,22.23
2018-01-01T10:19:34.847Z,17.67
2018-01-01T10:22:01.360Z,22.57
2018-01-01T10:24:27.799Z,22.30
2018-01-01T10:26:54.195Z,13.00
2018-01-01T10:29:20.721Z,15.07
2018-01-01T10:31:47.152Z,14.10
2018-01-01T10:34:13.546Z,12.53
2018-01-01T10:36:39.979Z,13.00
2018-01-01T10:39:06.356Z,17.13
2018-01-01T10:41:32.772Z,18.50
2018-01-01T10:43:59.149Z,13.70
2018-01-01T10:46:25.567Z,15.40
2018-01-01T10:48:51.991Z,13.70
2018-01-01T10:51:18.452Z,10.97
2018-01-01T10:53:44.899Z,10.60
2018-01-01T10:56:11.288Z,14.00
2018-01-01T10:58:37.659Z,12.13
2018-01-01T11:01:04.128Z,15.40
2018-01-01T11:03:30.536Z,11.17
2018-01-01T11:05:56.930Z,11.63
2018-01-01T11:08:23.363Z,10.40
2018-01-01T11:10:49.850Z,12.17
2018-01-01T11:13:16.238Z,7.70
2018-01-01T11:15:42.673Z,8.17
2018-01-01T11:18:09.063Z,8.70
2018-01-01T11:20:35.499Z,9.30
2018-01-01T11:23:01.948Z,11.73
2018-01-01T11:25:28.470Z,9.30
2018-01-01T11:27:54.880Z,8.70
2018-01-01T11:30:21.372Z,9.17
2018-01-01T11:32:47.739Z,10.00
2018-01-01T11:35:14.160Z,9.07
2018-01-01T11:37:40.563Z,10.37
2018-01-01T11:40:06.944Z,10.20
2018-01-01T11:42:33.310Z,8.60
2018-01-01T11:44:59.796Z,10.27
2018-01-01T11:47:26.232Z,7.80
2018-01-01T11:49:52.628Z,7.67
2018-01-01T11:52:19.041Z,8.00
2018-01-01T11:54:45.427Z,8.13
2018-01-01T11:57:11.848Z,7.90
2018-01-01T11:59:38.259Z,8.20
2018-01-01T12:02:04.651Z,9.20
2018-01-01T12:04:30.987Z,8.60
2018-01-01T12:06:57.423Z,9.23
2018-01-01T12:09:30.973Z,9.60
2018-01-01T12:11:57.364Z,8.83
2018-01-01T12:14:23.796Z,9.00
2018-01-01T12:16:50.192Z,8.40
2018-01-01T12:19:16.660Z,9.20
2018-01-01T12:21:43.059Z,11.80
2018-01-01T12:24:15.649Z,11.27
2018-01-01T12:26:43.211Z,11.60
2018-01-01T12:29:09.611Z,11.17
2018-01-01T12:31:36.163Z,9.57
2018-01-01T12:34:02.587Z,8.27
2018-01-01T12:36:28.958Z,9.50
2018-01-01T12:38:55.347Z,8.80
2018-01-01T12:41:21.725Z,8.87
2018-01-01T12:43:48.139Z,10.80
2018-01-01T12:46:14.563Z,10.40
2018-01-01T12:48:40.970Z,11.60
2018-01-01T12:51:07.334Z,8.70
2018-01-01T12:53:33.736Z,9.37
2018-01-01T12:56:00.243Z,8.97
2018-01-01T12:58:26.643Z,9.23
2018-01-01T13:00:53.035Z,13.97
2018-01-01T13:03:19.471Z,13.47
2018-01-01T13:05:45.903Z,10.70
2018-01-01T13:08:12.259Z,9.23
2018-01-01T13:10:38.699Z,9.37
2018-01-01T13:13:05.098Z,10.30
2018-01-01T13:15:31.591Z,10.80
2018-01-01T13:17:57.999Z,9.87
2018-01-01T13:20:24.356Z,10.13
2018-01-01T13:22:50.839Z,11.17
2018-01-01T13:25:17.291Z,10.23
2018-01-01T13:27:43.677Z,10.33
2018-01-01T13:30:10.089Z,10.83
2018-01-01T13:32:36.545Z,10.97
2018-01-01T13:35:02.957Z,12.43
2018-01-01T13:37:29.387Z,10.33
2018-01-01T13:39:55.884Z,11.30
2018-01-01T13:42:22.288Z,11.17
2018-01-01T13:44:48.632Z,14.03
2018-01-01T13:47:15.144Z,12.40
2018-01-01T13:49:41.544Z,11.27
2018-01-01T13:52:08.009Z,10.90
2018-01-01T13:54:34.503Z,12.13
2018-01-01T13:57:00.917Z,12.67
2018-01-01T13:59:27.331Z,16.20
2018-01-01T14:01:53.766Z,16.23
2018-01-01T14:04:20.199Z,15.57
2018-01-01T14:06:46.547Z,14.80
2018-01-01T14:09:12.990Z,15.67
2018-01-01T14:11:39.344Z,14.27
2018-01-01T14:14:05.742Z,15.43
2018-01-01T14:16:32.135Z,16.03
2018-01-01T14:18:58.471Z,13.10
2018-01-01T14:21:24.981Z,14.83
2018-01-01T14:23:51.439Z,14.93
2018-01-01T14:26:17.844Z,18.10
2018-01-01T14:28:44.251Z,19.90
2018-01-01T14:31:10.723Z,20.40
2018-01-01T14:33:37.147Z,21.07
2018-01-01T14:36:03.559Z,21.03
2018-01-01T14:38:29.991Z,18.80
2018-01-01T14:40:56.394Z,17.87
2018-01-01T14:43:22.826Z,16.20
2018-01-01T14:45:49.312Z,15.30
2018-01-01T14:48:15.772Z,17.03
2018-01-01T14:50:42.155Z,17.30
2018-01-01T14:53:10.656Z,19.20
2018-01-01T14:55:37.072Z,19.07
2018-01-01T14:58:03.439Z,18.87
2018-01-01T15:00:29.879Z,17.83
2018-01-01T15:02:56.398Z,20.87
2018-01-01T15:05:22.770Z,20.57
2018-01-01T15:07:49.189Z,26.33
2018-01-01T15:10:15.638Z,24.70
2018-01-01T15:12:42.039Z,27.27
2018-01-01T15:15:08.477Z,30.47
2018-01-01T15:17:35.000Z,33.23
2018-01-01T15:20:01.602Z,37.73
2018-01-01T15:22:28.200Z,42.03
2018-01-01T15:24:54.604Z,47.17
2018-01-01T15:27:21.128Z,44.27
2018-01-01T15:29:47.572Z,50.50
2018-01-01T15:32:14.127Z,49.47
2018-01-01T15:34:48.926Z,49.23
2018-01-01T15:37:15.697Z,50.57
2018-01-01T15:39:42.181Z,48.53
2018-01-01T15:42:09.380Z,46.70
2018-01-01T15:44:35.815Z,50.63
2018-01-01T15:47:02.228Z,56.40
2018-01-01T15:49:28.663Z,57.43
2018-01-01T15:51:55.220Z,61.33
2018-01-01T15:54:21.603Z,62.30
2018-01-01T15:56:48.040Z,55.13
2018-01-01T15:59:14.430Z,84.37
2018-01-01T16:01:40.823Z,48.73
2018-01-01T16:04:07.235Z,45.03
2018-01-01T16:06:33.641Z,41.07
2018-01-01T16:09:00.026Z,37.70
2018-01-01T16:11:26.468Z,44.47
2018-01-01T16:13:52.872Z,68.57
2018-01-01T16:16:19.276Z,58.97
2018-01-01T16:18:46.575Z,48.93
2018-01-01T16:21:13.031Z,39.80
2018-01-01T16:23:39.395Z,37.07
2018-01-01T16:26:05.959Z,32.07
2018-01-01T16:28:32.566Z,28.17
2018-01-01T16:30:58.997Z,29.47
2018-01-01T16:33:25.468Z,29.50
2018-01-01T16:35:51.827Z,31.50
2018-01-01T16:38:18.223Z,31.30
2018-01-01T16:40:44.704Z,32.90
2018-01-01T16:43:11.184Z,48.33
2018-01-01T16:45:38.539Z,61.67
2018-01-01T16:48:05.100Z,62.13
2018-01-01T16:50:31.516Z,51.53
2018-01-01T16:52:57.951Z,39.20
2018-01-01T16:55:24.413Z,32.43
2018-01-01T16:57:50.881Z,33.67
2018-01-01T17:00:17.275Z,35.80
2018-01-01T17:02:43.716Z,34.93
2018-01-01T17:05:10.131Z,30.20
2018-01-01T17:07:36.656Z,28.83
2018-01-01T17:10:03.144Z,26.80
2018-01-01T17:12:29.556Z,26.67
2018-01-01T17:14:56.004Z,27.73
2018-01-01T17:17:22.495Z,28.67
2018-01-01T17:19:48.907Z,27.47
2018-01-01T17:22:15.396Z,25.57
2018-01-01T17:24:41.820Z,24.33
2018-01-01T17:27:08.281Z,24.63
2018-01-01T17:29:34.716Z,24.67
2018-01-01T17:32:01.200Z,26.80
2018-01-01T17:34:27.845Z,26.50
2018-01-01T17:36:54.302Z,28.40
2018-01-01T17:39:20.783Z,29.63
2018-01-01T17:41:47.232Z,31.20
2018-01-01T17:44:13.611Z,30.80
2018-01-01T17:46:40.052Z,33.07
2018-01-01T17:49:06.457Z,32.53
2018-01-01T17:51:33.219Z,30.90
2018-01-01T17:53:59.692Z,32.20
2018-01-01T17:56:26.133Z,32.17
2018-01-01T17:58:52.551Z,36.40
2018-01-01T18:01:19.048Z,41.80
2018-01-01T18:03:48.731Z,49.53
2018-01-01T18:06:15.130Z,62.37
2018-01-01T18:08:41.616Z,68.77
2018-01-01T18:11:07.995Z,84.17
2018-01-01T18:13:34.419Z,85.83
2018-01-01T18:16:00.823Z,99.70
2018-01-01T18:18:27.267Z,108.63
2018-01-01T18:20:53.639Z,102.53
2018-01-01T18:23:20.036Z,113.87
2018-01-01T18:25:46.412Z,117.07
2018-01-01T18:28:12.839Z,113.43
2018-01-01T18:30:39.267Z,115.77
2018-01-01T18:33:05.663Z,119.60
2018-01-01T18:35:32.040Z,120.77
2018-01-01T18:37:58.479Z,125.67
2018-01-01T18:40:24.835Z,121.83
2018-01-01T18:42:51.241Z,133.67
2018-01-01T18:45:17.699Z,135.80
2018-01-01T18:47:44.135Z,137.07
2018-01-01T18:50:10.491Z,131.60
2018-01-01T18:52:36.928Z,123.00
2018-01-01T18:55:03.319Z,99.23
2018-01-01T18:57:29.964Z,93.43
2018-01-01T18:59:56.354Z,96.90
2018-01-01T19:02:22.748Z,105.27
2018-01-01T19:04:49.244Z,105.87
2018-01-01T19:07:15.719Z,101.90
2018-01-01T19:09:42.143Z,93.03
2018-01-01T19:12:08.662Z,88.70
2018-01-01T19:14:35.118Z,77.40
2018-01-01T19:17:01.624Z,78.77
2018-01-01T19:19:28.080Z,75.83
2018-01-01T19:21:54.504Z,81.60
2018-01-01T19:24:20.918Z,85.73
2018-01-01T19:26:47.355Z,87.70
2018-01-01T19:29:13.784Z,83.87
2018-01-01T19:31:40.308Z,81.27
2018-01-01T19:34:06.767Z,78.97
2018-01-01T19:36:33.188Z,78.40
2018-01-01T19:38:59.559Z,74.97
2018-01-01T19:41:25.996Z,76.53
2018-01-01T19:43:52.468Z,82.47
2018-01-01T19:46:18.852Z,88.03
2018-01-01T19:48:45.214Z,91.97
2018-01-01T19:51:11.732Z,94.93
2018-01-01T19:53:38.103Z,84.10
2018-01-01T19:56:04.532Z,70.60
2018-01-01T19:58:30.967Z,65.50
2018-01-01T20:00:57.359Z,59.70
2018-01-01T20:03:23.747Z,59.80
2018-01-01T20:05:50.243Z,61.03
2018-01-01T20:08:16.632Z,64.10
2018-01-01T20:10:43.031Z,61.43
2018-01-01T20:13:09.487Z,57.73
2018-01-01T20:15:35.816Z,59.67
2018-01-01T20:18:02.264Z,58.43
2018-01-01T20:20:28.670Z,56.50
2018-01-01T20:22:55.051Z,57.20
2018-01-01T20:25:21.439Z,59.77
2018-01-01T20:27:48.007Z,57.97
2018-01-01T20:30:14.353Z,58.73
2018-01-01T20:32:40.720Z,59.53
2018-01-01T20:35:07.148Z,59.50
2018-01-01T20:37:33.508Z,56.90
2018-01-01T20:39:59.919Z,57.53
2018-01-01T20:42:26.379Z,60.20
2018-01-01T20:44:52.759Z,59.17
2018-01-01T20:47:19.179Z,60.23
2018-01-01T20:49:45.596Z,61.73
2018-01-01T20:52:12.094Z,60.57
2018-01-01T20:54:38.530Z,64.77
2018-01-01T20:57:05.002Z,66.83
2018-01-01T20:59:31.371Z,66.40
2018-01-01T21:01:57.793Z,68.37
2018-01-01T21:04:24.257Z,69.07
2018-01-01T21:06:50.703Z,66.70
2018-01-01T21:09:17.080Z,66.03
2018-01-01T21:11:43.499Z,65.90
2018-01-01T21:14:10.010Z,63.77
2018-01-01T21:16:36.430Z,63.97
2018-01-01T21:19:02.980Z,64.33
2018-01-01T21:21:29.392Z,62.00
2018-01-01T21:23:55.788Z,60.93
2018-01-01T21:26:22.535Z,63.83
2018-01-01T21:28:49.059Z,64.37
2018-01-01T21:31:15.395Z,65.43
2018-01-01T21:33:41.853Z,65.40
2018-01-01T21:36:08.313Z,66.80
2018-01-01T21:38:34.764Z,65.30
2018-01-01T21:41:01.289Z,63.60
2018-01-01T21:43:27.681Z,66.47
2018-01-01T21:45:54.062Z,66.90
2018-01-01T21:48:20.550Z,62.77
2018-01-01T21:50:46.939Z,61.73
2018-01-01T21:53:13.368Z,65.27
2018-01-01T21:55:39.824Z,64.43
2018-01-01T21:58:06.211Z,62.80
2018-01-01T22:00:32.666Z,58.37
2018-01-01T22:02:59.159Z,54.50
2018-01-01T22:05:25.507Z,56.60
2018-01-01T22:07:51.907Z,56.17
2018-01-01T22:10:18.348Z,53.47
2018-01-01T22:12:44.728Z,52.23
2018-01-01T22:15:11.139Z,49.90
2018-01-01T22:17:37.572Z,47.90
2018-01-01T22:20:03.931Z,46.67
2018-01-01T22:22:30.320Z,45.87
2018-01-01T22:24:56.751Z,50.37
2018-01-01T22:27:23.112Z,50.30
2018-01-01T22:29:49.483Z,52.37
2018-01-01T22:32:15.912Z,53.17
2018-01-01T22:34:42.355Z,50.10
2018-01-01T22:37:08.731Z,43.03
2018-01-01T22:39:35.147Z,40.90
2018-01-01T22:42:01.527Z,39.20
2018-01-01T22:44:27.903Z,40.33
2018-01-01T22:46:54.378Z,42.20
2018-01-01T22:49:20.794Z,40.10
2018-01-01T22:51:47.219Z,41.93
2018-01-01T22:54:13.683Z,42.23
2018-01-01T22:56:40.087Z,41.53
2018-01-01T22:59:06.494Z,40.93
2018-01-01T23:01:32.916Z,40.17
2018-01-01T23:03:59.387Z,37.80
2018-01-01T23:06:25.751Z,40.43
2018-01-01T23:08:52.232Z,39.63
2018-01-01T23:11:18.627Z,41.27
2018-01-01T23:13:45.027Z,43.07
2018-01-01T23:16:11.548Z,44.07
2018-01-01T23:18:37.947Z,45.03
2018-01-01T23:21:04.403Z,44.00
2018-01-01T23:23:30.832Z,43.47
2018-01-01T23:25:57.209Z,43.90
2018-01-01T23:28:23.607Z,43.20
2018-01-01T23:30:50.054Z,43.20
2018-01-01T23:33:16.388Z,44.30
2018-01-01T23:35:42.753Z,45.97
2018-01-01T23:38:09.235Z,45.03
2018-01-01T23:40:35.584Z,45.23
2018-01-01T23:43:02.021Z,47.37
2018-01-01T23:45:28.486Z,49.20
2018-01-01T23:47:54.961Z,43.43
2018-01-01T23:50:21.352Z,39.50
2018-01-01T23:52:47.799Z,36.97
2018-01-01T23:55:14.212Z,39.53
2018-01-01T23:57:40.624Z,41.07
